Map

Track Data

SID SEASON NUMBER BASIN SUBBASIN NAME ISO_TIME NATURE LAT LON WMO_WIND WMO_PRES WMO_AGENCY TRACK_TYPE DIST2LAND LANDFALL IFLAG USA_AGENCY USA_ATCF_ID USA_LAT USA_LON USA_RECORD USA_STATUS USA_WIND USA_PRES USA_SSHS USA_R34_NE USA_R34_SE USA_R34_SW USA_R34_NW USA_R50_NE USA_R50_SE USA_R50_SW USA_R50_NW USA_R64_NE USA_R64_SE USA_R64_SW USA_R64_NW USA_POCI USA_ROCI USA_RMW USA_EYE TOKYO_LAT TOKYO_LON TOKYO_GRADE TOKYO_WIND TOKYO_PRES TOKYO_R50_DIR TOKYO_R50_LONG TOKYO_R50_SHORT TOKYO_R30_DIR TOKYO_R30_LONG TOKYO_R30_SHORT TOKYO_LAND CMA_LAT CMA_LON CMA_CAT CMA_WIND CMA_PRES HKO_LAT HKO_LON HKO_CAT HKO_WIND HKO_PRES NEWDELHI_LAT NEWDELHI_LON NEWDELHI_GRADE NEWDELHI_WIND NEWDELHI_PRES NEWDELHI_CI NEWDELHI_DP NEWDELHI_POCI REUNION_LAT REUNION_LON REUNION_TYPE REUNION_WIND REUNION_PRES REUNION_TNUM REUNION_CI REUNION_RMW REUNION_R34_NE REUNION_R34_SE REUNION_R34_SW REUNION_R34_NW REUNION_R50_NE REUNION_R50_SE REUNION_R50_SW REUNION_R50_NW REUNION_R64_NE REUNION_R64_SE REUNION_R64_SW REUNION_R64_NW BOM_LAT BOM_LON BOM_TYPE BOM_WIND BOM_PRES BOM_TNUM BOM_CI BOM_RMW BOM_R34_NE BOM_R34_SE BOM_R34_SW BOM_R34_NW BOM_R50_NE BOM_R50_SE BOM_R50_SW BOM_R50_NW BOM_R64_NE BOM_R64_SE BOM_R64_SW BOM_R64_NW BOM_ROCI BOM_POCI BOM_EYE BOM_POS_METHOD BOM_PRES_METHOD NADI_LAT NADI_LON NADI_CAT NADI_WIND NADI_PRES WELLINGTON_LAT WELLINGTON_LON WELLINGTON_WIND WELLINGTON_PRES DS824_LAT DS824_LON DS824_STAGE DS824_WIND DS824_PRES TD9636_LAT TD9636_LON TD9636_STAGE TD9636_WIND TD9636_PRES TD9635_LAT TD9635_LON TD9635_WIND TD9635_PRES TD9635_ROCI NEUMANN_LAT NEUMANN_LON NEUMANN_CLASS NEUMANN_WIND NEUMANN_PRES MLC_LAT MLC_LON MLC_CLASS MLC_WIND MLC_PRES USA_GUST BOM_GUST BOM_GUST_PER REUNION_GUST REUNION_GUST_PER USA_SEAHGT USA_SEARAD_NE USA_SEARAD_SE USA_SEARAD_SW USA_SEARAD_NW STORM_SPEED STORM_DIR
1960093S14155 1960 17 SP EA NOT_NAMED 1960-04-01 23:00:00 NR -13.7000 155.200 1002 bom main 600 600 ______O_______ -1 -13.7000 155.200 1002 8 137
1960093S14155 1960 17 SP EA NOT_NAMED 1960-04-02 00:00:00 TS -13.7918 155.293 main 615 615 ______P__O____ -1 -13.7877 155.290 -13.8000 155.300 TC 25 1002 8 135
1960093S14155 1960 17 SP EA NOT_NAMED 1960-04-02 03:00:00 TS -14.0572 155.564 main 661 656 ______P__P____ -1 -14.0506 155.560 -14.0671 155.570 TC 8 135
1960093S14155 1960 17 SP EA NOT_NAMED 1960-04-02 06:00:00 TS -14.3221 155.835 main 665 658 ______P__P____ -1 -14.3134 155.831 -14.3336 155.841 TC 8 135
1960093S14155 1960 17 SP EA NOT_NAMED 1960-04-02 09:00:00 TS -14.5875 156.108 main 671 664 ______P__P____ -1 -14.5759 156.104 -14.5992 156.113 TC 8 135
1960093S14155 1960 17 SP EA NOT_NAMED 1960-04-02 12:00:00 TS -14.8509 156.382 main 680 674 ______P__P____ -1 -14.8383 156.378 -14.8634 156.386 TC 8 135
1960093S14155 1960 17 SP EA NOT_NAMED 1960-04-02 15:00:00 TS -15.1133 156.657 main 682 682 ______P__P____ -1 -15.1006 156.654 -15.1259 156.661 TC 8 134
1960093S14155 1960 17 SP EA NOT_NAMED 1960-04-02 18:00:00 TS -15.3746 156.935 main 701 696 ______P__P____ -1 -15.3629 156.931 -15.3864 156.938 TC 8 134
1960093S14155 1960 17 SP EA NOT_NAMED 1960-04-02 21:00:00 TS -15.6348 157.215 main 708 708 ______P__P____ -1 -15.6251 157.212 -15.6445 157.218 TC 8 134
1960093S14155 1960 17 SP EA NOT_NAMED 1960-04-02 23:00:00 TS -15.8076 157.403 1000 bom main 720 720 ______O__P____ -1 -15.8000 157.400 1000 -15.8152 157.406 TC 8 134
1960093S14155 1960 17 SP EA NOT_NAMED 1960-04-03 00:00:00 TS -15.8937 157.497 main 727 727 ______P__O____ -1 -15.8874 157.495 -15.9000 157.500 TC 30 1000 8 133
1960093S14155 1960 17 SP EA NOT_NAMED 1960-04-03 03:00:00 TS -16.1506 157.782 main 743 737 ______P__P____ -1 -16.1489 157.780 -16.1522 157.785 TC 8 133
1960093S14155 1960 17 SP EA NOT_NAMED 1960-04-03 06:00:00 TS -16.4036 158.068 main 743 729 ______P__P____ -1 -16.4074 158.065 -16.3998 158.070 TC 7 132
1960093S14155 1960 17 SP EA NOT_NAMED 1960-04-03 09:00:00 TS -16.6508 158.352 main 714 684 ______P__P____ -1 -16.6604 158.349 -16.6413 158.355 TC 7 132
1960093S14155 1960 17 SP EA NOT_NAMED 1960-04-03 12:00:00 TS -16.8902 158.634 main 684 645 ______P__P____ -1 -16.9056 158.630 -16.8749 158.637 TC 7 131
1960093S14155 1960 17 SP EA NOT_NAMED 1960-04-03 15:00:00 TS -17.1199 158.910 main 645 606 ______P__P____ -1 -17.1407 158.906 -17.0991 158.915 TC 7 131
1960093S14155 1960 17 SP EA NOT_NAMED 1960-04-03 18:00:00 TS -17.3378 159.180 main 606 576 ______P__P____ -1 -17.3632 159.174 -17.3124 159.186 TC 7 130
1960093S14155 1960 17 SP EA NOT_NAMED 1960-04-03 21:00:00 TS -17.5421 159.441 main 576 546 ______P__P____ -1 -17.5709 159.433 -17.5133 159.448 TC 6 129
1960093S14155 1960 17 SP EA NOT_NAMED 1960-04-03 23:00:00 TS -17.6697 159.609 1000 bom main 546 537 ______O__P____ -1 -17.7000 159.600 1000 -17.6394 159.617 TC 6 128
1960093S14155 1960 17 SP EA NOT_NAMED 1960-04-04 00:00:00 TS -17.7312 159.690 main 537 507 ______P__O____ -1 -17.7625 159.680 -17.7000 159.700 TC 30 1000 6 129
1960093S14155 1960 17 SP EA NOT_NAMED 1960-04-04 03:00:00 TS -17.9081 159.922 main 507 477 ______P__P____ -1 -17.9389 159.910 -17.8772 159.934 TC 6 128
1960093S14155 1960 17 SP MM NOT_NAMED 1960-04-04 06:00:00 TS -18.0704 160.144 main 477 453 ______P__P____ -1 -18.1000 160.130 -18.0407 160.158 TC 5 127
1960093S14155 1960 17 SP MM NOT_NAMED 1960-04-04 09:00:00 TS -18.2196 160.358 main 444 421 ______P__P____ -1 -18.2475 160.343 -18.1917 160.373 TC 5 126
1960093S14155 1960 17 SP MM NOT_NAMED 1960-04-04 12:00:00 TS -18.3571 160.566 main 415 391 ______P__P____ -1 -18.3827 160.550 -18.3314 160.581 TC 5 124
1960093S14155 1960 17 SP MM NOT_NAMED 1960-04-04 15:00:00 TS -18.4842 160.770 main 391 367 ______P__P____ -1 -18.5075 160.754 -18.4609 160.786 TC 5 123
1960093S14155 1960 17 SP MM NOT_NAMED 1960-04-04 18:00:00 TS -18.6023 160.973 main 367 343 ______P__P____ -1 -18.6231 160.957 -18.5814 160.989 TC 4 121
1960093S14155 1960 17 SP MM NOT_NAMED 1960-04-04 21:00:00 TS -18.7127 161.177 main 343 328 ______P__P____ -1 -18.7313 161.161 -18.6941 161.193 TC 4 119
1960093S14155 1960 17 SP MM NOT_NAMED 1960-04-04 23:00:00 TS -18.7827 161.315 998 bom main 328 319 ______O__P____ -1 -18.8000 161.300 998 -18.7654 161.330 TC 4 118
1960093S14155 1960 17 SP MM NOT_NAMED 1960-04-05 00:00:00 TS -18.8191 161.384 main 319 296 ______P__O____ -1 -18.8382 161.368 -18.8000 161.400 TC 35 998 4 118
1960093S14155 1960 17 SP MM NOT_NAMED 1960-04-05 03:00:00 TS -18.9239 161.592 main 296 272 ______P__P____ -1 -18.9476 161.573 -18.9002 161.612 TC 4 117
1960093S14155 1960 17 SP MM NOT_NAMED 1960-04-05 06:00:00 TS -19.0225 161.804 main 272 248 ______P__P____ -1 -19.0496 161.778 -18.9955 161.830 TC 4 115
1960093S14155 1960 17 SP MM NOT_NAMED 1960-04-05 09:00:00 TS -19.1154 162.019 main 248 224 ______P__P____ -1 -19.1443 161.987 -19.0865 162.051 TC 5 114
1960093S14155 1960 17 SP MM NOT_NAMED 1960-04-05 12:00:00 TS -19.2030 162.240 main 224 192 ______P__P____ -1 -19.2322 162.203 -19.1738 162.277 TC 5 112
1960093S14155 1960 17 SP MM NOT_NAMED 1960-04-05 15:00:00 TS -19.2858 162.467 main 192 169 ______P__P____ -1 -19.3134 162.429 -19.2582 162.505 TC 5 110
1960093S14155 1960 17 SP MM NOT_NAMED 1960-04-05 18:00:00 TS -19.3643 162.701 main 169 152 ______P__P____ -1 -19.3884 162.667 -19.3402 162.735 TC 5 109
1960093S14155 1960 17 SP MM NOT_NAMED 1960-04-05 21:00:00 TS -19.4416 162.941 main 152 129 ______P__P____ -1 -19.4573 162.921 -19.4206 162.967 TC 5 108
1960093S14155 1960 17 SP MM NOT_NAMED 1960-04-05 23:00:00 TS -19.4912 163.107 994 bom main 129 122 ______O__P____ -1 -19.5000 163.100 994 4 -19.4736 163.122 TC 5 107
1960093S14155 1960 17 SP MM NOT_NAMED 1960-04-06 00:00:00 TS -19.5163 163.194 main 122 91 ______P__O____ -1 -19.5204 163.193 -19.5000 163.200 TC 40 994 5 104
1960093S14155 1960 17 SP MM NOT_NAMED 1960-04-06 03:00:00 NR -19.5781 163.484 main 91 74 ______P_______ -1 -19.5781 163.484 TC 6 102
1960093S14155 1960 17 SP MM NOT_NAMED 1960-04-06 06:00:00 NR -19.6313 163.792 main 74 55 ______P_______ -1 -19.6313 163.792 TC 6 100
1960093S14155 1960 17 SP MM NOT_NAMED 1960-04-06 09:00:00 NR -19.6806 164.111 main 55 55 ______P_______ -1 -19.6806 164.111 TC 6 99
1960093S14155 1960 17 SP MM NOT_NAMED 1960-04-06 12:00:00 NR -19.7270 164.440 main 64 56 ______P_______ -1 -19.7270 164.440 TC 6 98
1960093S14155 1960 17 SP MM NOT_NAMED 1960-04-06 15:00:00 NR -19.7712 164.775 main 64 64 ______P_______ -1 -19.7712 164.775 TC 6 98
1960093S14155 1960 17 SP MM NOT_NAMED 1960-04-06 17:00:00 NR -19.8000 165.000 bom main 76 ______O_______ -1 -19.8000 165.000 TC 6 98

Digital Typhoon Data and Search

About IBTrACS Database

This database is a web-friendly format of International Best Track Archive for Climate Stewardship (IBTrACS), a global best track data archive curated by NOAA dating back to 1842.

Updated: 2021-11-26